Huvudsida
METAR-TAF:

METAR-TAF

Flygplatser :

Al Wajh, Saudiarabien

latitud: 26-12N, longitud: 036-28E, höjd: 20 m

Aktuellt väderrapport

Denna rapport gjordes för 19 minuter sedan, klockan 23:00 UTC
Stilla vind
Temperatur 29°C
Fuktighet 40%
Tryck 1010 hPa
Sikt 10 km eller mer
Få moln på en höjd av 4000 ft

METAR: OEWJ 132300Z 00000KT 9999 FEW040 29/14 Q1010 NOSIG

Tid: 02:19 (23:19 UTC)

Väderprognos

Denna rapport gjordes för 12 timmar och 19 minuter sedan, klockan 11:00 UTC
Prognos gäller från 13 kl. 12 UTC till 14 kl. 18 UTC
Vind 15 kt från nord/nordväst
Sikt 10 km eller mer
Få moln på en höjd av 4000 ft
Sannolikhet 30% :
Temporärt
från 13 kl. 12 UTC till 13 kl. 18 UTC
Sikt: 4000 m
Få moln på en höjd av 3500 ft, Cumulonimbus.
högt damm drev
Blir
från 13 kl. 18 UTC till 13 kl. 20 UTC
Vind 3 kt varierande vindriktning

TAF: OEWJ 131100Z 1312/1418 33015KT 9999 FEW040 PROB30 TEMPO 1312/1318 4000 BLDU FEW035CB BECMG 1318/1320 VRB03KT

Aktuella väderrapporter och prognoser från 4000 flygplatser (METAR- och TAF-rapporter).

De tillgängliga stationerna syns som gula och röda prickar på kartan.

För musen över prickarna för att se namnen på stationerna.

Klicka sedan för att få väderrapporter och prognoser.

För att ändra kartan: Klicka på de gröna knapparna med ett svart kors på för att zooma in; den gröna knappen med ett streck på för att zooma ut; eller på de gröna pilarna för angränsande kartor.


METAR-TAF: